Time;durP1;ratioP1;P1;durP2;ratioP2;P2;SDS_P1;SDS_P2;PMS_P1;PMS_P2;Temp;Humidity;BMP_temperature;BMP_pressure;BME280_temperature;BME280_humidity;BME280_pressure;Samples;Min_cycle;Max_cycle;Signal;HPM_P1;HPM_P2
2023/03/31 00:01:11;;;;;;;7.88;4.88;;;;;;;17.05;45.76;99829.91;5098336;28;20086;-65
2023/03/31 00:03:42;;;;;;;7.72;4.65;;;;;;;17.04;45.86;99821.97;5098333;28;20071;-65
2023/03/31 00:06:16;;;;;;;6.72;4.75;;;;;;;17.03;45.96;99823.81;5098382;28;20044;-67
2023/03/31 00:08:50;;;;;;;8.38;5.22;;;;;;;17.00;45.83;99821.41;5098235;28;20109;-66
2023/03/31 00:11:19;;;;;;;6.93;5.13;;;;;;;17.00;46.04;99829.50;5098262;28;20408;-66
2023/03/31 00:13:48;;;;;;;8.40;4.70;;;;;;;16.99;45.92;99817.03;5098205;28;20135;-65
2023/03/31 00:16:16;;;;;;;7.78;4.75;;;;;;;16.99;45.72;99818.88;5098256;28;20484;-66
2023/03/31 00:18:46;;;;;;;7.30;4.78;;;;;;;16.95;45.96;99815.59;5098137;28;20495;-66
2023/03/31 00:21:24;;;;;;;7.18;4.63;;;;;;;16.96;45.77;99803.81;5098266;28;20082;-68
2023/03/31 00:23:53;;;;;;;7.43;4.93;;;;;;;16.94;45.95;99819.28;5098072;28;20093;-65
2023/03/31 00:26:22;;;;;;;5.95;4.15;;;;;;;16.92;45.89;99805.09;5098079;28;20050;-66
2023/03/31 00:28:50;;;;;;;6.68;4.43;;;;;;;16.92;45.84;99807.81;5098150;28;20048;-66
2023/03/31 00:31:19;;;;;;;6.95;4.43;;;;;;;16.92;45.88;99809.66;5098129;28;20044;-65
2023/03/31 00:33:48;;;;;;;7.90;4.88;;;;;;;16.90;46.08;99806.25;5098059;28;20048;-66
2023/03/31 00:36:20;;;;;;;7.28;4.25;;;;;;;16.88;45.95;99804.53;5097945;28;20044;-65
2023/03/31 00:38:50;;;;;;;7.25;4.78;;;;;;;16.88;46.08;99806.38;5097805;28;20560;-66
2023/03/31 00:41:18;;;;;;;7.07;4.57;;;;;;;16.87;45.99;99804.66;5098117;28;20044;-65
2023/03/31 00:44:05;;;;;;;7.28;4.45;;;;;;;16.82;46.03;99793.50;5098152;28;20085;-65
2023/03/31 00:46:38;;;;;;;6.35;4.28;;;;;;;16.84;46.17;99796.88;5098156;28;20068;-66
2023/03/31 00:49:10;;;;;;;;;;;;;;;16.82;46.04;99798.88;5098348;28;20044;-66
2023/03/31 00:51:39;;;;;;;6.05;3.70;;;;;;;16.80;46.04;99795.50;5097958;28;20340;-67
2023/03/31 00:54:08;;;;;;;9.00;3.55;;;;;;;16.80;46.41;99801.72;5097991;28;20476;-66
2023/03/31 00:56:39;;;;;;;6.40;4.00;;;;;;;16.77;46.32;99785.81;5097934;28;20497;-66
2023/03/31 00:59:12;;;;;;;6.05;3.78;;;;;;;16.77;46.33;99791.22;5094478;28;20093;-66
2023/03/31 01:01:45;;;;;;;6.20;3.72;;;;;;;16.76;46.39;99794.91;5094625;28;20143;-66
2023/03/31 01:04:15;;;;;;;;;;;;;;;16.75;46.38;99784.28;5095151;28;20071;-66
2023/03/31 01:06:51;;;;;;;5.50;3.78;;;;;;;16.75;46.67;99781.59;5094704;28;19927;-67
2023/03/31 01:09:21;;;;;;;5.40;3.28;;;;;;;16.74;46.56;99782.59;5094546;28;20051;-65
2023/03/31 01:11:49;;;;;;;7.20;3.88;;;;;;;16.73;46.59;99775.50;5094425;28;20495;-65
2023/03/31 01:14:17;;;;;;;5.22;3.47;;;;;;;16.70;46.53;99773.09;5094339;28;20048;-65
2023/03/31 01:16:46;;;;;;;6.30;3.88;;;;;;;16.71;46.75;99780.19;5094472;28;20044;-65
2023/03/31 01:19:27;;;;;;;5.80;3.60;;;;;;;16.70;46.65;99770.41;5094391;28;20052;-66
2023/03/31 01:22:38;;;;;;;5.93;3.58;;;;;;;16.68;46.83;99767.84;5094198;28;20131;-65
2023/03/31 01:25:44;;;;;;;4.53;2.90;;;;;;;16.66;46.89;99768.94;5094296;28;20048;-66
2023/03/31 01:28:26;;;;;;;5.32;3.00;;;;;;;16.66;46.97;99775.19;5084920;28;20044;-66
2023/03/31 01:31:16;;;;;;;5.05;3.28;;;;;;;16.65;47.04;99786.94;5093992;28;20044;-65
2023/03/31 01:34:20;;;;;;;4.85;2.65;;;;;;;16.63;46.92;99788.09;5094015;28;20044;-66
2023/03/31 01:37:22;;;;;;;5.93;2.58;;;;;;;16.60;47.08;99779.31;5093936;28;20051;-65
2023/03/31 01:40:24;;;;;;;5.10;2.72;;;;;;;16.60;47.08;99781.16;5093756;28;20056;-65
2023/03/31 01:42:57;;;;;;;5.05;2.83;;;;;;;16.61;47.18;99788.22;5093891;28;20048;-66
2023/03/31 01:45:41;;;;;;;4.23;2.77;;;;;;;16.60;47.05;99783.84;5093792;28;20408;-66
2023/03/31 01:48:17;;;;;;;5.20;3.10;;;;;;;16.58;47.12;99786.66;5093921;28;20040;-65
2023/03/31 01:50:50;;;;;;;6.50;2.80;;;;;;;16.56;47.15;99777.88;5093781;28;20044;-66
2023/03/31 01:53:23;;;;;;;;;;;;;;;16.56;47.19;99780.56;5094110;28;20050;-65
2023/03/31 01:56:02;;;;;;;5.00;2.70;;;;;;;16.55;47.18;99775.31;5093663;28;19948;-66
2023/03/31 01:58:36;;;;;;;5.50;2.58;;;;;;;16.53;47.17;99778.16;5093729;28;20418;-66
2023/03/31 02:01:14;;;;;;;5.35;3.08;;;;;;;16.51;47.40;99772.06;5093519;28;20560;-66
2023/03/31 02:03:48;;;;;;;4.63;2.47;;;;;;;16.52;47.34;99778.31;5093499;28;20050;-67
2023/03/31 02:06:23;;;;;;;5.18;2.70;;;;;;;16.49;47.30;99776.72;5093439;28;20508;-67
2023/03/31 02:08:57;;;;;;;5.13;2.60;;;;;;;16.48;47.38;99775.03;5093306;28;20086;-65
2023/03/31 02:11:30;;;;;;;4.45;2.35;;;;;;;16.49;47.52;99771.34;5092447;28;20051;-65
2023/03/31 02:14:01;;;;;;;4.65;2.63;;;;;;;16.49;47.37;99776.72;5093253;28;20052;-67
2023/03/31 02:16:32;;;;;;;4.32;2.30;;;;;;;16.48;47.42;99780.41;5093245;28;20123;-65
2023/03/31 02:19:05;;;;;;;3.90;2.33;;;;;;;16.47;47.49;99773.34;5093212;28;20051;-65
2023/03/31 02:21:36;;;;;;;3.92;2.25;;;;;;;16.46;47.55;99766.25;5093248;28;20109;-65
2023/03/31 02:24:09;;;;;;;3.53;1.92;;;;;;;16.45;47.50;99769.09;5093253;28;20054;-66
2023/03/31 02:26:43;;;;;;;4.72;2.53;;;;;;;16.43;47.60;99766.53;5093172;28;20048;-65
2023/03/31 02:29:12;;;;;;;4.32;2.15;;;;;;;16.43;47.58;99761.16;5092984;28;20668;-66
2023/03/31 02:31:46;;;;;;;3.47;2.10;;;;;;;16.43;47.64;99761.16;5092857;28;20169;-66
2023/03/31 02:34:15;;;;;;;4.45;2.30;;;;;;;16.41;47.66;99768.53;5093090;28;20082;-66
2023/03/31 02:36:45;;;;;;;3.83;2.25;;;;;;;16.41;47.61;99767.69;5092946;28;20079;-66
2023/03/31 02:39:17;;;;;;;4.50;2.33;;;;;;;16.39;47.66;99757.03;5092725;28;20055;-65
2023/03/31 02:41:47;;;;;;;3.95;2.47;;;;;;;16.39;47.67;99756.19;5092754;28;20070;-65
2023/03/31 02:44:16;;;;;;;3.50;2.10;;;;;;;16.35;47.73;99752.94;5092646;28;20548;-67
2023/03/31 02:46:45;;;;;;;4.47;2.03;;;;;;;16.37;47.70;99755.47;5092910;28;20043;-66
2023/03/31 02:49:15;;;;;;;3.55;2.10;;;;;;;16.35;47.73;99749.41;5092627;28;20089;-65
2023/03/31 02:52:02;;;;;;;3.58;2.05;;;;;;;16.35;47.74;99752.09;5092539;28;20110;-65
2023/03/31 02:55:02;;;;;;;3.70;2.28;;;;;;;16.33;47.81;99744.16;5092388;28;20397;-65
2023/03/31 02:58:08;;;;;;;3.90;2.00;;;;;;;16.29;47.76;99742.72;5079898;28;20060;-66
2023/03/31 03:00:52;;;;;;;3.10;1.80;;;;;;;16.30;47.84;99750.66;5092296;28;20044;-67
2023/03/31 03:03:32;;;;;;;3.75;1.95;;;;;;;16.30;47.97;99741.72;5092401;28;20455;-67
2023/03/31 03:06:07;;;;;;;3.00;1.90;;;;;;;16.29;47.96;99742.72;5092387;28;20123;-66
2023/03/31 03:08:54;;;;;;;3.55;2.17;;;;;;;16.28;48.02;99741.03;5092253;28;20055;-67
2023/03/31 03:11:31;;;;;;;3.08;1.98;;;;;;;16.27;47.95;99742.88;5092156;28;20396;-66
2023/03/31 03:14:09;;;;;;;4.05;1.88;;;;;;;16.26;48.00;99733.09;5092113;28;20074;-66
2023/03/31 03:16:41;;;;;;;3.17;1.80;;;;;;;16.25;48.08;99741.31;5092169;28;20051;-65
2023/03/31 03:19:18;;;;;;;3.50;1.88;;;;;;;16.24;47.97;99739.63;5092189;28;20056;-65
2023/03/31 03:21:46;;;;;;;4.18;1.77;;;;;;;16.20;47.99;99736.34;5091244;28;20039;-66
2023/03/31 03:24:15;;;;;;;4.28;1.90;;;;;;;16.20;48.22;99727.44;5092190;28;20055;-66
2023/03/31 03:26:44;;;;;;;3.83;1.70;;;;;;;16.20;48.21;99730.13;5091925;28;20704;-65
2023/03/31 03:29:14;;;;;;;2.97;1.85;;;;;;;16.18;48.22;99732.94;5091966;28;20048;-67
2023/03/31 03:31:42;;;;;;;3.28;1.77;;;;;;;16.18;48.29;99729.41;5091940;28;20075;-67
2023/03/31 03:34:11;;;;;;;2.42;1.70;;;;;;;16.16;48.34;99726.03;5091716;28;20055;-67
2023/03/31 03:36:40;;;;;;;2.95;1.80;;;;;;;16.14;48.45;99730.69;5092012;28;20476;-66
2023/03/31 03:39:08;;;;;;;2.92;1.70;;;;;;;16.13;48.44;99737.06;5091804;28;20063;-66
2023/03/31 03:41:36;;;;;;;3.67;1.92;;;;;;;16.12;48.47;99732.69;5091923;28;20044;-67
2023/03/31 03:44:05;;;;;;;3.28;1.90;;;;;;;16.12;48.42;99740.75;5091790;28;20058;-66
2023/03/31 03:46:34;;;;;;;3.88;1.90;;;;;;;16.08;48.58;99745.53;5091858;28;20117;-69
2023/03/31 03:49:03;;;;;;;3.92;2.08;;;;;;;16.08;48.52;99744.69;5091760;28;20044;-66
2023/03/31 03:51:31;;;;;;;2.90;1.80;;;;;;;16.07;48.61;99745.69;5091630;28;20040;-67
2023/03/31 03:53:59;;;;;;;3.63;1.92;;;;;;;16.06;48.67;99735.94;5091717;28;20052;-67
2023/03/31 03:56:27;;;;;;;2.75;1.60;;;;;;;16.02;48.71;99746.97;5091620;28;20123;-68
2023/03/31 03:58:55;;;;;;;3.30;1.88;;;;;;;16.00;48.88;99748.94;5090680;28;20098;-66
2023/03/31 04:01:23;;;;;;;3.90;1.80;;;;;;;16.00;48.77;99750.78;5091494;28;20043;-66
2023/03/31 04:03:53;;;;;;;3.78;1.80;;;;;;;16.00;48.74;99758.84;5091553;28;20048;-66
2023/03/31 04:06:22;;;;;;;3.50;1.70;;;;;;;15.98;48.63;99758.13;5091471;28;20123;-67
2023/03/31 04:08:50;;;;;;;3.45;1.58;;;;;;;15.96;48.83;99754.75;5091793;28;20072;-66
2023/03/31 04:11:19;;;;;;;3.22;1.65;;;;;;;15.94;48.70;99759.41;5091517;28;20044;-68
2023/03/31 04:13:48;;;;;;;3.42;2.00;;;;;;;15.95;48.78;99753.88;5091566;28;20480;-65
2023/03/31 04:16:16;;;;;;;3.05;1.60;;;;;;;15.95;48.86;99745.81;5091397;28;20048;-66
2023/03/31 04:18:44;;;;;;;2.55;1.55;;;;;;;15.93;48.80;99737.03;5091499;28;20382;-66
2023/03/31 04:21:21;;;;;;;4.00;1.80;;;;;;;15.92;48.96;99735.34;5091502;28;20139;-67
2023/03/31 04:23:57;;;;;;;3.15;1.90;;;;;;;15.92;48.88;99738.03;5091331;28;20044;-67
2023/03/31 04:26:37;;;;;;;3.55;1.63;;;;;;;15.91;48.74;99730.09;5091344;28;20044;-66
2023/03/31 04:29:06;;;;;;;3.17;1.80;;;;;;;15.91;48.93;99743.53;5091312;28;20044;-67
2023/03/31 04:31:37;;;;;;;3.08;1.70;;;;;;;15.87;48.67;99742.97;5091151;28;20044;-66
2023/03/31 04:34:11;;;;;;;2.75;1.63;;;;;;;15.89;48.84;99749.06;5093361;28;20066;-67
2023/03/31 04:36:45;;;;;;;4.18;1.88;;;;;;;15.87;48.83;99737.59;5095119;28;20520;-67
2023/03/31 04:39:15;;;;;;;3.58;1.88;;;;;;;15.87;48.78;99728.66;5094730;28;20098;-66
2023/03/31 04:41:44;;;;;;;3.85;1.70;;;;;;;15.83;48.83;99720.03;5094891;28;20044;-66
2023/03/31 04:44:12;;;;;;;3.30;1.58;;;;;;;15.87;48.76;99728.66;5095058;28;20048;-66
2023/03/31 04:46:40;;;;;;;4.22;1.80;;;;;;;15.86;48.74;99722.44;5094911;28;20523;-66
2023/03/31 04:49:08;;;;;;;3.88;1.80;;;;;;;15.85;48.80;99718.06;5094952;28;20051;-67
2023/03/31 04:51:36;;;;;;;2.92;1.60;;;;;;;15.84;48.78;99719.06;5094795;28;20048;-66
2023/03/31 04:54:06;;;;;;;2.08;1.30;;;;;;;15.85;48.83;99728.81;5094766;28;20056;-66
2023/03/31 04:56:34;;;;;;;3.85;1.58;;;;;;;15.83;48.80;99728.09;5094548;28;20040;-66
2023/03/31 04:59:03;;;;;;;2.38;1.38;;;;;;;15.82;48.71;99720.16;5094734;28;20044;-65
2023/03/31 05:01:34;;;;;;;2.72;1.50;;;;;;;15.82;48.77;99712.94;5094492;28;20090;-65
2023/03/31 05:04:04;;;;;;;2.77;1.70;;;;;;;15.82;48.70;99723.69;5094849;28;20094;-66
2023/03/31 05:06:33;;;;;;;3.22;1.58;;;;;;;15.80;48.87;99708.69;5094572;28;20079;-66
2023/03/31 05:09:01;;;;;;;3.00;1.50;;;;;;;15.79;48.67;99712.38;5094554;28;20055;-66
2023/03/31 05:11:31;;;;;;;3.22;1.63;;;;;;;15.78;48.66;99708.84;5094482;28;20040;-66
2023/03/31 05:13:59;;;;;;;2.58;1.70;;;;;;;15.81;48.68;99722.00;5094245;28;20374;-67
2023/03/31 05:16:27;;;;;;;3.67;1.80;;;;;;;15.80;48.83;99714.91;5094343;28;20540;-66
2023/03/31 05:18:56;;;;;;;2.90;1.70;;;;;;;15.80;48.81;99712.22;5094336;28;20052;-67
2023/03/31 05:21:25;;;;;;;2.08;1.50;;;;;;;15.79;48.69;99713.22;5094216;28;20473;-69
2023/03/31 05:23:53;;;;;;;3.28;1.50;;;;;;;15.79;48.83;99710.53;5093608;28;20075;-66
2023/03/31 05:26:24;;;;;;;3.30;1.55;;;;;;;15.79;48.79;99707.00;5093488;28;20075;-66
2023/03/31 05:28:54;;;;;;;2.85;1.65;;;;;;;15.78;48.77;99706.16;5091120;28;20051;-66
2023/03/31 05:31:23;;;;;;;2.40;1.50;;;;;;;15.79;48.87;99705.16;5092875;28;20036;-66
2023/03/31 05:33:51;;;;;;;2.67;1.45;;;;;;;15.78;48.88;99706.16;5093055;28;20040;-68
2023/03/31 05:36:22;;;;;;;3.20;1.52;;;;;;;15.79;48.83;99707.84;5093100;28;20400;-68
2023/03/31 05:38:51;;;;;;;2.67;1.58;;;;;;;15.78;48.75;99711.53;5090669;28;20052;-66
2023/03/31 05:41:19;;;;;;;2.50;1.40;;;;;;;15.77;48.74;99707.13;5092980;28;20044;-67
2023/03/31 05:43:48;;;;;;;2.55;1.50;;;;;;;15.78;48.93;99711.53;5089880;28;20059;-67
2023/03/31 05:46:18;;;;;;;2.53;1.50;;;;;;;15.78;48.76;99706.16;5092788;28;20078;-66
2023/03/31 05:48:46;;;;;;;2.80;1.60;;;;;;;15.78;48.85;99698.09;5092794;28;20044;-66
2023/03/31 05:51:14;;;;;;;4.70;1.55;;;;;;;15.77;48.90;99698.22;5092738;28;20048;-66
2023/03/31 05:53:43;;;;;;;3.03;1.70;;;;;;;15.81;48.91;99699.63;5092396;28;20048;-67
2023/03/31 05:56:12;;;;;;;2.47;1.48;;;;;;;15.80;48.80;99703.31;5092566;28;20051;-66
2023/03/31 05:58:40;;;;;;;3.03;1.70;;;;;;;15.79;48.77;99699.78;5091889;28;20091;-67
2023/03/31 06:01:10;;;;;;;2.15;1.38;;;;;;;15.78;48.91;99690.00;5093434;28;20044;-68
2023/03/31 06:03:41;;;;;;;2.38;1.48;;;;;;;15.79;48.93;99690.88;5093164;28;20101;-67
2023/03/31 06:06:11;;;;;;;2.50;1.50;;;;;;;15.76;48.97;99686.63;5093301;28;20430;-67
2023/03/31 06:08:40;;;;;;;2.75;1.70;;;;;;;15.78;48.93;99695.41;5093026;28;20101;-67
2023/03/31 06:11:10;;;;;;;4.00;1.70;;;;;;;15.73;48.90;99685.06;5093351;28;20123;-66
2023/03/31 06:13:39;;;;;;;1.90;1.38;;;;;;;15.77;49.12;99688.31;5093174;28;20054;-67
2023/03/31 06:16:09;;;;;;;2.17;1.30;;;;;;;15.79;48.92;99698.94;5093148;28;20044;-66
2023/03/31 06:18:38;;;;;;;2.67;1.67;;;;;;;15.80;48.79;99690.72;5092956;28;20047;-66
2023/03/31 06:21:08;;;;;;;3.78;1.80;;;;;;;15.80;48.92;99693.41;5092973;28;20071;-67
2023/03/31 06:23:37;;;;;;;3.67;1.67;;;;;;;15.81;48.94;99694.25;5092866;28;20172;-66
2023/03/31 06:26:08;;;;;;;4.10;1.80;;;;;;;15.81;48.94;99702.31;5092940;28;20042;-67
2023/03/31 06:28:36;;;;;;;2.55;1.67;;;;;;;15.81;48.95;99696.94;5092966;28;20055;-67
2023/03/31 06:31:06;;;;;;;3.47;1.63;;;;;;;15.78;48.90;99691.84;5092620;28;20104;-66
2023/03/31 06:33:36;;;;;;;3.03;1.65;;;;;;;15.80;48.95;99690.72;5092835;28;20114;-69
2023/03/31 06:36:05;;;;;;;3.15;1.80;;;;;;;15.81;49.01;99700.47;5093057;28;20052;-66
2023/03/31 06:38:37;;;;;;;3.35;1.90;;;;;;;15.82;48.91;99696.81;5092627;28;20413;-65
2023/03/31 06:41:06;;;;;;;2.95;1.90;;;;;;;15.81;48.99;99694.25;5092364;28;20059;-68
2023/03/31 06:43:35;;;;;;;2.53;1.58;;;;;;;15.83;49.01;99693.16;5092530;28;20048;-67
2023/03/31 06:46:03;;;;;;;2.58;1.50;;;;;;;15.84;48.96;99694.00;5092668;28;20051;-67
2023/03/31 06:48:32;;;;;;;3.28;1.80;;;;;;;15.84;49.00;99699.38;5092006;28;20054;-67
2023/03/31 06:51:02;;;;;;;4.07;1.92;;;;;;;15.84;49.09;99686.78;5091836;28;20043;-67
2023/03/31 06:53:31;;;;;;;3.35;1.67;;;;;;;15.84;49.12;99677.88;5091685;28;20039;-67
2023/03/31 06:56:01;;;;;;;2.88;1.77;;;;;;;15.84;49.04;99675.19;5091386;28;20063;-69
2023/03/31 06:58:29;;;;;;;2.30;1.52;;;;;;;15.84;49.18;99683.25;5092193;28;20139;-66
2023/03/31 07:00:59;;;;;;;4.57;1.90;;;;;;;15.87;49.13;99685.66;5092300;28;20036;-65
2023/03/31 07:03:28;;;;;;;2.78;1.42;;;;;;;15.87;48.97;99683.81;5092075;28;20056;-66
2023/03/31 07:05:56;;;;;;;3.00;1.77;;;;;;;15.89;49.13;99687.19;5090970;28;20048;-66
2023/03/31 07:08:25;;;;;;;3.55;1.90;;;;;;;15.89;49.11;99683.66;5092375;28;20048;-67
2023/03/31 07:10:57;;;;;;;4.32;1.95;;;;;;;15.90;49.22;99683.50;5092054;28;20071;-65
2023/03/31 07:13:27;;;;;;;4.10;2.00;;;;;;;15.92;49.18;99691.44;5090733;28;20079;-66
2023/03/31 07:15:55;;;;;;;3.38;1.90;;;;;;;15.92;49.17;99686.06;5090866;28;20078;-65
2023/03/31 07:18:30;;;;;;;4.57;2.08;;;;;;;15.92;49.17;99692.31;5092177;28;20079;-66
2023/03/31 07:21:02;;;;;;;3.22;1.50;;;;;;;15.94;49.10;99693.03;5092102;28;20462;-66
2023/03/31 07:23:34;;;;;;;4.53;1.90;;;;;;;15.94;49.10;99684.94;5091991;28;20052;-66
2023/03/31 07:26:02;;;;;;;3.42;1.70;;;;;;;15.95;49.21;99686.66;5091864;28;20496;-66
2023/03/31 07:28:32;;;;;;;3.20;1.98;;;;;;;15.95;49.19;99675.88;5091843;28;20048;-65
2023/03/31 07:31:00;;;;;;;3.65;1.80;;;;;;;15.95;49.23;99670.50;5091884;28;20123;-66
2023/03/31 07:33:28;;;;;;;4.57;2.25;;;;;;;15.97;49.29;99673.91;5091939;28;20048;-66
2023/03/31 07:35:56;;;;;;;4.32;2.50;;;;;;;15.96;49.24;99664.13;5091849;28;20051;-65
2023/03/31 07:38:40;;;;;;;4.28;2.38;;;;;;;15.98;49.53;99672.06;5091918;28;20489;-66
2023/03/31 07:41:11;;;;;;;4.38;2.50;;;;;;;15.97;49.83;99662.28;5091736;28;20047;-66
2023/03/31 07:43:42;;;;;;;5.03;2.30;;;;;;;16.00;49.73;99662.00;5091791;28;20062;-64
2023/03/31 07:46:18;;;;;;;6.50;2.60;;;;;;;15.98;49.60;99656.78;5091627;28;20050;-65
2023/03/31 07:48:47;;;;;;;4.65;2.45;;;;;;;15.98;49.69;99654.06;5091623;28;20047;-65
2023/03/31 07:51:16;;;;;;;5.07;2.50;;;;;;;16.01;49.60;99653.78;5092142;28;20048;-65
2023/03/31 07:53:45;;;;;;;4.05;2.10;;;;;;;16.02;49.50;99654.66;5091818;28;20065;-67
2023/03/31 07:56:13;;;;;;;4.93;2.55;;;;;;;16.03;49.51;99645.59;5091686;28;20055;-66
2023/03/31 07:58:42;;;;;;;5.28;2.15;;;;;;;16.03;49.65;99646.44;5091649;28;20123;-65
2023/03/31 08:01:15;;;;;;;3.28;2.17;;;;;;;16.05;49.71;99649.00;5091627;28;20432;-66
2023/03/31 08:03:44;;;;;;;4.65;2.50;;;;;;;16.06;49.88;99644.47;5091516;28;20048;-65
2023/03/31 08:06:12;;;;;;;5.50;2.28;;;;;;;16.05;49.80;99642.75;5091622;28;20044;-67
2023/03/31 08:08:42;;;;;;;5.53;2.85;;;;;;;16.07;49.95;99640.78;5094977;28;20101;-66
2023/03/31 08:11:10;;;;;;;3.83;2.22;;;;;;;16.07;50.02;99641.63;5095787;28;20040;-66
2023/03/31 08:13:38;;;;;;;4.50;2.28;;;;;;;16.08;50.23;99642.47;5095508;28;20120;-65
2023/03/31 08:16:07;;;;;;;4.50;2.47;;;;;;;16.09;50.05;99636.09;5095513;28;20048;-66
2023/03/31 08:18:36;;;;;;;5.13;2.75;;;;;;;16.08;50.14;99626.34;5095390;28;20063;-64
2023/03/31 08:21:05;;;;;;;3.20;2.03;;;;;;;16.09;50.13;99625.34;5095671;28;20044;-66
2023/03/31 08:23:36;;;;;;;3.20;1.98;;;;;;;16.10;50.10;99619.81;5095169;28;20131;-66
2023/03/31 08:26:12;;;;;;;3.65;2.25;;;;;;;16.11;50.25;99616.13;5095453;28;20044;-66
2023/03/31 08:28:44;;;;;;;5.28;2.50;;;;;;;16.13;50.25;99618.69;5095499;28;20520;-66
2023/03/31 08:31:15;;;;;;;4.65;2.40;;;;;;;16.13;50.32;99610.63;5095360;28;20485;-66
2023/03/31 08:33:43;;;;;;;4.97;2.45;;;;;;;16.14;50.13;99610.47;5095217;28;20122;-67
2023/03/31 08:36:12;;;;;;;3.70;2.10;;;;;;;16.17;50.39;99603.94;5095549;28;20117;-67
2023/03/31 08:38:44;;;;;;;5.55;2.50;;;;;;;16.15;50.42;99595.19;5095092;28;20062;-67
2023/03/31 08:41:27;;;;;;;4.27;2.53;;;;;;;16.18;50.46;99593.03;5095150;28;20052;-66
2023/03/31 08:43:57;;;;;;;4.97;2.30;;;;;;;16.19;50.69;99588.50;5094882;28;20536;-66
2023/03/31 08:46:30;;;;;;;4.38;2.65;;;;;;;16.19;50.73;99580.44;5095014;28;20044;-66
2023/03/31 08:49:00;;;;;;;5.10;2.75;;;;;;;16.19;50.63;99581.28;5094846;28;20052;-65
2023/03/31 08:51:32;;;;;;;4.57;2.30;;;;;;;16.22;50.73;99580.16;5094803;28;20123;-66
2023/03/31 08:54:03;;;;;;;4.38;2.65;;;;;;;16.22;50.64;99569.41;5094670;28;20040;-66
2023/03/31 08:56:38;;;;;;;5.85;2.65;;;;;;;16.23;50.92;99565.72;5094703;28;20051;-67
2023/03/31 08:59:08;;;;;;;3.75;2.38;;;;;;;16.24;50.93;99557.50;5094701;28;20047;-67
2023/03/31 09:01:42;;;;;;;4.00;2.22;;;;;;;16.25;50.89;99552.97;5094741;28;20479;-66
2023/03/31 09:04:43;;;;;;;3.72;2.30;;;;;;;16.27;50.94;99556.34;5094310;28;20073;-66
2023/03/31 09:07:19;;;;;;;5.13;2.25;;;;;;;16.24;50.97;99545.88;5094737;28;20079;-65
2023/03/31 09:09:55;;;;;;;5.60;2.30;;;;;;;16.29;51.00;99548.97;5094689;28;20059;-66
2023/03/31 09:12:29;;;;;;;5.03;2.67;;;;;;;16.29;51.41;99528.28;5094504;28;20122;-65
2023/03/31 09:15:01;;;;;;;4.13;2.50;;;;;;;16.32;51.29;99537.94;5094211;28;20058;-66
2023/03/31 09:17:38;;;;;;;3.72;2.28;;;;;;;16.33;51.25;99533.41;5094274;28;20052;-66
2023/03/31 09:20:13;;;;;;;4.28;2.35;;;;;;;16.34;51.48;99525.19;5093571;28;20101;-66
2023/03/31 09:22:45;;;;;;;4.30;2.20;;;;;;;16.35;51.50;99520.66;5094122;28;20123;-67
2023/03/31 09:25:18;;;;;;;3.95;2.22;;;;;;;16.36;51.55;99523.19;5094201;28;20046;-68
2023/03/31 09:27:47;;;;;;;4.75;2.35;;;;;;;16.38;51.74;99518.50;5094033;28;20052;-66
2023/03/31 09:30:20;;;;;;;4.00;2.10;;;;;;;16.38;51.91;99514.94;5094135;28;20075;-66
2023/03/31 09:32:55;;;;;;;3.92;2.10;;;;;;;16.40;51.75;99507.56;5094141;28;20098;-66
2023/03/31 09:35:25;;;;;;;4.43;2.20;;;;;;;16.39;51.83;99514.81;5093871;28;20153;-66
2023/03/31 09:37:54;;;;;;;4.95;2.42;;;;;;;16.43;51.96;99510.00;5093905;28;20044;-66
2023/03/31 09:40:25;;;;;;;4.60;2.35;;;;;;;16.46;51.85;99502.47;5093691;28;20109;-67
2023/03/31 09:42:58;;;;;;;3.92;2.22;;;;;;;16.48;51.89;99502.31;5093872;28;20054;-66
2023/03/31 09:45:27;;;;;;;4.28;2.17;;;;;;;16.48;52.04;99500.47;5093788;28;20063;-67
2023/03/31 09:47:59;;;;;;;3.47;2.03;;;;;;;16.51;52.08;99494.81;5093842;28;20044;-68
2023/03/31 09:50:29;;;;;;;3.90;2.28;;;;;;;16.51;52.18;99486.72;5093889;28;20120;-67
2023/03/31 09:53:00;;;;;;;3.50;2.00;;;;;;;16.56;52.10;99486.25;5093655;28;20055;-67
2023/03/31 09:55:37;;;;;;;4.85;2.25;;;;;;;16.56;52.15;99487.13;5093663;28;20040;-66
2023/03/31 09:58:08;;;;;;;4.15;2.50;;;;;;;16.61;52.26;99484.00;5093505;28;20048;-68
2023/03/31 10:00:36;;;;;;;4.18;1.88;;;;;;;16.63;52.19;99479.28;5093482;28;20131;-68
2023/03/31 10:03:07;;;;;;;3.50;2.10;;;;;;;16.67;51.94;99466.38;5093450;28;20044;-67
2023/03/31 10:05:38;;;;;;;4.35;2.03;;;;;;;16.69;51.88;99464.41;5093133;28;20463;-67
2023/03/31 10:08:20;;;;;;;4.20;2.17;;;;;;;16.71;51.79;99457.88;5093805;28;20054;-67
2023/03/31 10:10:50;;;;;;;3.45;1.85;;;;;;;16.76;51.62;99454.72;5093294;28;20048;-67
2023/03/31 10:13:21;;;;;;;3.95;2.25;;;;;;;16.79;51.38;99454.41;5093105;28;20054;-67
2023/03/31 10:15:52;;;;;;;3.75;2.00;;;;;;;16.82;51.28;99446.06;5093332;28;20444;-67
2023/03/31 10:18:34;;;;;;;3.10;1.92;;;;;;;16.86;51.34;99428.59;5093099;28;20054;-68
2023/03/31 10:21:05;;;;;;;4.38;2.20;;;;;;;16.92;51.14;99427.97;5093393;28;20051;-67
2023/03/31 10:23:35;;;;;;;4.70;2.00;;;;;;;16.93;51.47;99423.44;5093203;28;20044;-67
2023/03/31 10:26:04;;;;;;;3.17;1.80;;;;;;;17.01;51.37;99434.31;5092796;28;20079;-68
2023/03/31 10:28:35;;;;;;;2.97;1.73;;;;;;;17.04;51.41;99432.13;5093220;28;20044;-67
2023/03/31 10:31:04;;;;;;;2.80;1.70;;;;;;;17.10;51.42;99419.91;5091848;28;20075;-67
2023/03/31 10:33:44;;;;;;;3.30;1.80;;;;;;;17.14;51.50;99424.81;5092870;28;20094;-66
2023/03/31 10:36:20;;;;;;;4.22;1.88;;;;;;;17.17;51.60;99416.41;5092778;28;20042;-67
2023/03/31 10:38:50;;;;;;;3.53;1.95;;;;;;;17.22;51.66;99417.81;5092624;28;20130;-66
2023/03/31 10:41:21;;;;;;;3.17;1.88;;;;;;;17.22;51.57;99409.75;5092507;28;20048;-68
2023/03/31 10:43:52;;;;;;;3.33;1.80;;;;;;;17.27;51.45;99410.94;5092599;28;20441;-68
2023/03/31 10:46:21;;;;;;;3.38;1.90;;;;;;;17.30;51.45;99412.50;5092517;28;20039;-68
2023/03/31 10:48:51;;;;;;;2.53;1.60;;;;;;;17.33;51.55;99414.88;5092409;28;20046;-66
2023/03/31 10:51:25;;;;;;;4.50;1.80;;;;;;;17.38;51.43;99401.81;5092401;28;20048;-68
2023/03/31 10:53:55;;;;;;;3.00;1.60;;;;;;;17.41;51.59;99398.78;5092426;28;20127;-67
2023/03/31 10:56:37;;;;;;;2.58;1.67;;;;;;;17.48;51.61;99397.16;5092290;28;20042;-67
2023/03/31 10:59:18;;;;;;;3.05;1.58;;;;;;;17.53;51.56;99389.44;5092371;28;20091;-68
2023/03/31 11:02:01;;;;;;;3.47;1.70;;;;;;;17.61;51.45;99399.44;5092367;28;20097;-68
2023/03/31 11:04:52;;;;;;;4.50;2.03;;;;;;;17.66;51.49;99391.72;5092490;28;20039;-67
2023/03/31 11:07:42;;;;;;;2.65;1.60;;;;;;;17.73;51.30;99390.94;5092232;28;20105;-67
2023/03/31 11:10:32;;;;;;;2.65;1.65;;;;;;;17.79;51.28;99389.47;5092120;28;20059;-68
2023/03/31 11:13:07;;;;;;;3.17;1.60;;;;;;;17.87;51.27;99386.00;5092067;28;20093;-68
2023/03/31 11:15:42;;;;;;;2.22;1.52;;;;;;;17.93;51.45;99379.94;5091899;28;20044;-68
2023/03/31 11:18:33;;;;;;;2.90;1.70;;;;;;;17.98;51.27;99385.72;5091815;28;20408;-68
2023/03/31 11:21:17;;;;;;;3.03;1.50;;;;;;;18.00;51.26;99378.31;5091747;28;20054;-67
2023/03/31 11:23:58;;;;;;;3.50;1.70;;;;;;;18.05;51.34;99361.59;5092060;28;20445;-68
2023/03/31 11:26:36;;;;;;;3.17;1.80;;;;;;;18.07;51.22;99362.31;5091936;28;20285;-67
2023/03/31 11:29:20;;;;;;;2.50;1.70;;;;;;;18.13;51.06;99358.94;5091997;28;20450;-68
2023/03/31 11:31:54;;;;;;;2.90;1.70;;;;;;;18.17;51.25;99345.00;5092026;28;20292;-68
2023/03/31 11:34:48;;;;;;;3.35;1.67;;;;;;;18.19;51.45;99342.13;5091793;28;20409;-67
2023/03/31 11:37:34;;;;;;;2.42;1.50;;;;;;;18.20;51.30;99323.06;5091806;28;20492;-68
2023/03/31 11:40:27;;;;;;;3.08;1.67;;;;;;;18.22;51.32;99310.25;5091469;28;20056;-68
2023/03/31 11:42:59;;;;;;;3.03;1.70;;;;;;;18.24;51.00;99302.00;5091494;28;20082;-67
2023/03/31 11:45:32;;;;;;;2.70;1.50;;;;;;;18.24;51.15;99286.66;5091482;28;20039;-67
2023/03/31 11:48:05;;;;;;;2.95;1.50;;;;;;;18.24;51.29;99273.16;5091543;28;20058;-67
2023/03/31 11:50:38;;;;;;;4.13;1.60;;;;;;;18.22;50.97;99271.63;5091393;28;20464;-68
2023/03/31 11:53:17;;;;;;;2.50;1.50;;;;;;;18.28;51.21;99271.81;5091513;28;20044;-67
2023/03/31 11:55:48;;;;;;;2.65;1.30;;;;;;;18.33;51.08;99265.91;5091593;28;20386;-68
2023/03/31 12:04:33;;;;;;;2.78;1.33;;;;;;;18.46;51.17;99263.56;5048787;28;20083;-68
2023/03/31 12:07:08;;;;;;;3.40;1.45;;;;;;;18.48;51.11;99260.72;5049045;28;20076;-67